createdAt,value
2022-11-14T00:01:55.731Z,7.50
2022-11-14T00:04:40.977Z,7.43
2022-11-14T00:07:30.069Z,7.49
2022-11-14T00:10:15.626Z,7.52
2022-11-14T00:13:00.762Z,7.50
2022-11-14T00:15:50.125Z,7.56
2022-11-14T00:18:35.391Z,7.31
2022-11-14T00:21:20.578Z,7.23
2022-11-14T00:24:05.888Z,7.50
2022-11-14T00:26:50.906Z,7.31
2022-11-14T00:29:36.346Z,7.00
2022-11-14T00:32:22.430Z,7.17
2022-11-14T00:35:11.553Z,7.19
2022-11-14T00:37:57.250Z,7.49
2022-11-14T00:40:42.131Z,7.38
2022-11-14T00:43:27.518Z,7.22
2022-11-14T00:46:12.764Z,7.06
2022-11-14T00:48:58.140Z,6.98
2022-11-14T00:51:43.577Z,6.90
2022-11-14T00:54:28.962Z,6.92
2022-11-14T00:57:14.892Z,7.05
2022-11-14T01:00:00.157Z,7.25
2022-11-14T01:02:45.820Z,7.25
2022-11-14T01:05:31.003Z,7.38
2022-11-14T01:08:18.835Z,7.50
2022-11-14T01:11:13.295Z,7.77
2022-11-14T01:13:58.451Z,7.82
2022-11-14T01:16:43.689Z,7.95
2022-11-14T01:19:28.956Z,8.00
2022-11-14T01:22:14.417Z,8.01
2022-11-14T01:24:59.617Z,8.03
2022-11-14T01:27:44.726Z,8.00
2022-11-14T01:30:29.834Z,7.88
2022-11-14T01:33:15.190Z,7.73
2022-11-14T01:36:00.528Z,7.61
2022-11-14T01:38:46.546Z,7.43
2022-11-14T01:41:31.644Z,7.40
2022-11-14T01:44:38.120Z,7.11
2022-11-14T01:47:28.902Z,6.75
2022-11-14T01:50:13.848Z,6.75
2022-11-14T01:52:59.129Z,6.79
2022-11-14T01:55:45.178Z,7.10
2022-11-14T01:58:38.526Z,7.04
2022-11-14T02:01:25.723Z,7.22
2022-11-14T02:04:15.490Z,7.18
2022-11-14T02:07:03.199Z,6.90
2022-11-14T02:09:49.748Z,6.58
2022-11-14T02:12:34.998Z,6.41
2022-11-14T02:15:20.267Z,6.44
2022-11-14T02:18:05.402Z,6.68
2022-11-14T02:20:50.617Z,6.64
2022-11-14T02:23:35.510Z,6.57
2022-11-14T02:26:22.155Z,6.77
2022-11-14T02:29:09.260Z,6.62
2022-11-14T02:31:54.721Z,6.72
2022-11-14T02:34:39.902Z,6.48
2022-11-14T02:37:25.451Z,6.61
2022-11-14T02:40:11.453Z,6.73
2022-11-14T02:42:56.821Z,6.37
2022-11-14T02:45:42.237Z,6.38
2022-11-14T02:48:27.588Z,6.59
2022-11-14T02:51:13.665Z,6.60
2022-11-14T02:53:58.986Z,6.50
2022-11-14T02:56:44.554Z,6.51
2022-11-14T02:59:29.936Z,6.61
2022-11-14T03:02:14.946Z,6.54
2022-11-14T03:05:00.157Z,6.39
2022-11-14T03:07:45.687Z,6.09
2022-11-14T03:10:31.647Z,6.00
2022-11-14T03:13:16.596Z,6.01
2022-11-14T03:16:08.260Z,6.17
2022-11-14T03:18:53.699Z,5.95
2022-11-14T03:21:38.841Z,5.87
2022-11-14T03:24:24.373Z,6.07
2022-11-14T03:27:09.708Z,6.28
2022-11-14T03:29:54.933Z,6.13
2022-11-14T03:32:40.153Z,5.99
2022-11-14T03:35:25.011Z,6.15
2022-11-14T03:38:10.441Z,6.06
2022-11-14T03:40:58.966Z,5.90
2022-11-14T03:43:44.279Z,6.04
2022-11-14T03:46:29.522Z,6.01
2022-11-14T03:49:14.852Z,6.13
2022-11-14T03:52:00.364Z,5.75
2022-11-14T03:54:45.448Z,5.59
2022-11-14T03:57:30.634Z,5.40
2022-11-14T04:00:16.185Z,5.25
2022-11-14T04:03:01.286Z,5.19
2022-11-14T04:05:46.600Z,5.01
2022-11-14T04:08:32.480Z,5.56
2022-11-14T04:11:18.830Z,5.85
2022-11-14T04:14:04.034Z,5.71
2022-11-14T04:16:49.378Z,5.55
2022-11-14T04:19:34.542Z,5.39
2022-11-14T04:22:19.521Z,5.54
2022-11-14T04:25:05.511Z,5.73
2022-11-14T04:27:51.230Z,5.70
2022-11-14T04:30:36.309Z,5.36
2022-11-14T04:33:22.312Z,5.29
2022-11-14T04:36:07.430Z,5.38
2022-11-14T04:38:52.821Z,5.27
2022-11-14T04:41:38.013Z,5.47
2022-11-14T04:44:23.194Z,5.68
2022-11-14T04:47:08.564Z,5.63
2022-11-14T04:49:53.769Z,5.15
2022-11-14T04:52:39.087Z,5.44
2022-11-14T04:55:24.387Z,5.41
2022-11-14T04:58:09.477Z,5.43
2022-11-14T05:00:57.631Z,5.42
2022-11-14T05:03:42.926Z,5.12
2022-11-14T05:06:28.371Z,5.19
2022-11-14T05:09:13.453Z,5.25
2022-11-14T05:11:58.537Z,5.35
2022-11-14T05:14:43.547Z,5.62
2022-11-14T05:17:29.187Z,5.87
2022-11-14T05:20:14.931Z,6.03
2022-11-14T05:23:00.136Z,6.07
2022-11-14T05:25:45.699Z,6.11
2022-11-14T05:28:31.768Z,6.05
2022-11-14T05:31:20.380Z,6.06
2022-11-14T05:34:06.549Z,6.10
2022-11-14T05:36:51.492Z,6.14
2022-11-14T05:39:36.636Z,6.07
2022-11-14T05:42:22.554Z,5.99
2022-11-14T05:45:08.237Z,5.82
2022-11-14T05:47:54.494Z,5.57
2022-11-14T05:50:39.644Z,5.32
2022-11-14T05:53:26.178Z,5.32
2022-11-14T05:56:12.791Z,5.38
2022-11-14T05:58:58.385Z,5.66
2022-11-14T06:01:43.840Z,5.80
2022-11-14T06:04:29.289Z,5.94
2022-11-14T06:07:19.770Z,5.24
2022-11-14T06:10:05.835Z,4.73
2022-11-14T06:12:51.567Z,5.09
2022-11-14T06:15:36.998Z,5.42
2022-11-14T06:18:22.273Z,5.29
2022-11-14T06:21:18.767Z,5.08
2022-11-14T06:24:04.229Z,5.41
2022-11-14T06:26:49.787Z,5.59
2022-11-14T06:29:35.745Z,5.75
2022-11-14T06:32:21.425Z,5.11
2022-11-14T06:35:08.452Z,4.75
2022-11-14T06:37:53.965Z,4.91
2022-11-14T06:40:39.361Z,4.92
2022-11-14T06:43:24.506Z,4.92
2022-11-14T06:46:12.326Z,5.09
2022-11-14T06:48:57.654Z,5.32
2022-11-14T06:51:42.844Z,5.40
2022-11-14T06:54:27.997Z,5.27
2022-11-14T06:57:13.614Z,5.22
2022-11-14T06:59:58.779Z,5.23
2022-11-14T07:02:46.248Z,5.28
2022-11-14T07:05:31.225Z,5.41
2022-11-14T07:08:20.819Z,5.46
2022-11-14T07:11:12.506Z,5.52
2022-11-14T07:14:00.026Z,5.41
2022-11-14T07:16:45.409Z,5.04
2022-11-14T07:19:30.840Z,5.12
2022-11-14T07:22:16.318Z,5.29
2022-11-14T07:25:01.493Z,5.18
2022-11-14T07:27:46.743Z,5.22
2022-11-14T07:30:33.381Z,5.28
2022-11-14T07:33:18.687Z,5.01
2022-11-14T07:36:04.297Z,5.10
2022-11-14T07:38:49.958Z,5.17
2022-11-14T07:41:35.032Z,4.98
2022-11-14T07:44:20.271Z,5.12
2022-11-14T07:47:05.579Z,5.07
2022-11-14T07:49:50.959Z,5.11
2022-11-14T07:52:36.252Z,5.35
2022-11-14T07:55:21.949Z,5.69
2022-11-14T07:58:06.920Z,5.72
2022-11-14T08:00:52.220Z,5.77
2022-11-14T08:03:42.355Z,5.68
2022-11-14T08:06:30.587Z,5.72
2022-11-14T08:09:16.271Z,5.71
2022-11-14T08:12:01.618Z,5.94
2022-11-14T08:14:46.744Z,5.88
2022-11-14T08:17:31.872Z,6.02
2022-11-14T08:20:17.615Z,6.08
2022-11-14T08:23:05.753Z,6.26
2022-11-14T08:25:50.938Z,6.28
2022-11-14T08:28:36.244Z,6.42
2022-11-14T08:31:21.784Z,6.52
2022-11-14T08:34:07.216Z,6.54
2022-11-14T08:36:52.298Z,6.49
2022-11-14T08:39:37.351Z,6.53
2022-11-14T08:42:22.553Z,6.53
2022-11-14T08:45:08.192Z,6.53
2022-11-14T08:47:53.866Z,6.64
2022-11-14T08:50:39.144Z,6.81
2022-11-14T08:53:24.765Z,7.01
2022-11-14T08:56:11.106Z,7.09
2022-11-14T08:58:56.670Z,7.15
2022-11-14T09:01:42.669Z,7.28
2022-11-14T09:04:28.042Z,7.47
2022-11-14T09:07:14.617Z,7.67
2022-11-14T09:10:00.281Z,7.92
2022-11-14T09:12:45.758Z,7.98
2022-11-14T09:15:31.267Z,8.12
2022-11-14T09:18:16.701Z,8.17
2022-11-14T09:21:07.280Z,8.31
2022-11-14T09:23:55.092Z,8.46
2022-11-14T09:26:42.485Z,8.66
2022-11-14T09:29:27.596Z,8.64
2022-11-14T09:32:12.814Z,8.63
2022-11-14T09:34:58.336Z,8.75
2022-11-14T09:37:43.885Z,8.73
2022-11-14T09:40:30.954Z,8.66
2022-11-14T09:43:31.653Z,8.85
2022-11-14T09:46:22.710Z,8.85
2022-11-14T09:49:24.171Z,8.89
2022-11-14T09:52:28.380Z,9.21
2022-11-14T09:55:43.905Z,9.40
2022-11-14T09:58:29.543Z,9.41
2022-11-14T10:01:31.425Z,9.34
2022-11-14T10:04:50.442Z,9.34
2022-11-14T10:07:48.914Z,9.37
2022-11-14T10:10:56.258Z,9.37
2022-11-14T10:13:57.784Z,9.53
2022-11-14T10:16:57.969Z,9.65
2022-11-14T10:20:02.160Z,9.68
2022-11-14T10:23:12.651Z,9.71
2022-11-14T10:26:08.949Z,9.64
2022-11-14T10:28:54.024Z,9.71
2022-11-14T10:31:53.823Z,9.45
2022-11-14T10:34:48.592Z,9.56
2022-11-14T10:37:53.122Z,9.45
2022-11-14T10:40:45.520Z,9.37
2022-11-14T10:43:36.612Z,9.49
2022-11-14T10:46:37.594Z,9.56
2022-11-14T10:49:25.464Z,9.50
2022-11-14T10:52:18.109Z,9.42
2022-11-14T10:55:07.592Z,9.43
2022-11-14T10:57:53.077Z,9.52
2022-11-14T11:00:38.466Z,9.75
2022-11-14T11:03:40.503Z,9.83
2022-11-14T11:06:27.566Z,9.64
2022-11-14T11:09:43.783Z,9.55
2022-11-14T11:12:50.330Z,9.64
2022-11-14T11:15:40.798Z,9.50
2022-11-14T11:18:36.870Z,9.51
2022-11-14T11:21:23.348Z,9.54
2022-11-14T11:24:09.417Z,9.61
2022-11-14T11:27:18.518Z,9.68
2022-11-14T11:30:33.288Z,9.91
2022-11-14T11:33:21.507Z,10.10
2022-11-14T11:36:17.998Z,10.26
2022-11-14T11:39:03.643Z,10.20
2022-11-14T11:42:08.741Z,10.14
2022-11-14T11:44:59.947Z,9.96
2022-11-14T11:47:53.466Z,10.02
2022-11-14T11:50:40.999Z,9.85
2022-11-14T11:53:34.040Z,9.88
2022-11-14T11:56:26.355Z,10.05
2022-11-14T11:59:40.666Z,9.98
2022-11-14T12:02:27.130Z,10.14
2022-11-14T12:05:16.384Z,10.29
2022-11-14T12:08:06.417Z,10.41
2022-11-14T12:10:53.930Z,10.53
2022-11-14T12:14:20.993Z,10.44
2022-11-14T12:17:52.593Z,10.47
2022-11-14T12:20:50.071Z,10.55
2022-11-14T12:24:07.069Z,10.52
2022-11-14T12:27:30.962Z,10.56
2022-11-14T12:30:23.804Z,10.54
2022-11-14T12:33:19.718Z,10.45
2022-11-14T12:36:10.434Z,10.40
2022-11-14T12:38:55.945Z,10.50
2022-11-14T12:41:41.938Z,10.48
2022-11-14T12:44:27.335Z,10.63
2022-11-14T12:47:15.519Z,10.60
2022-11-14T12:50:03.126Z,10.62
2022-11-14T12:52:53.971Z,10.63
2022-11-14T12:55:54.329Z,10.65
2022-11-14T12:58:48.611Z,10.64
2022-11-14T13:02:00.917Z,10.69
2022-11-14T13:05:16.678Z,10.68
2022-11-14T13:08:28.321Z,10.80
2022-11-14T13:11:50.018Z,10.77
2022-11-14T13:15:14.247Z,10.73
2022-11-14T13:18:31.587Z,10.84
2022-11-14T13:21:45.147Z,10.73
2022-11-14T13:24:58.624Z,10.93
2022-11-14T13:31:22.736Z,11.08
2022-11-14T13:34:37.824Z,11.07
2022-11-14T13:37:44.836Z,11.01
2022-11-14T13:40:54.238Z,10.97
2022-11-14T13:44:03.854Z,11.02
2022-11-14T13:47:04.580Z,10.98
2022-11-14T13:50:13.568Z,10.98
2022-11-14T13:52:59.306Z,11.12
2022-11-14T13:55:59.695Z,11.04
2022-11-14T13:59:14.526Z,11.06
2022-11-14T14:02:19.448Z,11.04
2022-11-14T14:05:29.371Z,11.28
2022-11-14T14:08:31.538Z,11.13
2022-11-14T14:11:29.010Z,11.22
2022-11-14T14:14:28.796Z,11.28
2022-11-14T14:17:36.179Z,11.18
2022-11-14T14:20:38.526Z,11.14
2022-11-14T14:23:35.836Z,11.00
2022-11-14T14:26:32.889Z,11.23
2022-11-14T14:29:27.923Z,11.38
2022-11-14T14:32:18.548Z,11.51
2022-11-14T14:35:27.470Z,11.34
2022-11-14T14:38:21.211Z,11.46
2022-11-14T14:41:06.876Z,11.45
2022-11-14T14:43:55.238Z,11.40
2022-11-14T14:46:40.651Z,11.37
2022-11-14T14:49:30.509Z,11.35
2022-11-14T14:52:25.443Z,11.32
2022-11-14T14:55:20.638Z,11.27
2022-11-14T14:58:23.455Z,11.35
2022-11-14T15:01:14.882Z,11.28
2022-11-14T15:04:06.337Z,11.15
2022-11-14T15:06:52.247Z,11.23
2022-11-14T15:09:37.298Z,11.20
2022-11-14T15:12:29.038Z,11.24
2022-11-14T15:15:16.429Z,11.26
2022-11-14T15:18:07.101Z,11.29
2022-11-14T15:21:14.930Z,11.29
2022-11-14T15:24:18.402Z,11.35
2022-11-14T15:27:20.464Z,11.21
2022-11-14T15:30:19.047Z,11.15
2022-11-14T15:33:06.704Z,11.31
2022-11-14T15:36:06.973Z,11.34
2022-11-14T15:39:01.128Z,11.29
2022-11-14T15:41:46.286Z,11.31
2022-11-14T15:44:33.524Z,11.20
2022-11-14T15:47:30.282Z,11.06
2022-11-14T15:50:15.350Z,11.19
2022-11-14T15:53:04.034Z,11.31
2022-11-14T15:55:49.584Z,11.32
2022-11-14T15:58:34.745Z,11.23
2022-11-14T16:01:25.756Z,11.22
2022-11-14T16:04:16.099Z,11.25
2022-11-14T16:07:01.488Z,11.30
2022-11-14T16:09:46.990Z,11.35
2022-11-14T16:12:32.201Z,11.34
2022-11-14T16:15:19.093Z,11.40
2022-11-14T16:18:05.842Z,11.39
2022-11-14T16:20:51.736Z,11.43
2022-11-14T16:23:36.565Z,11.32
2022-11-14T16:26:21.914Z,11.17
2022-11-14T16:29:07.936Z,11.12
2022-11-14T16:31:55.295Z,11.17
2022-11-14T16:34:40.752Z,11.19
2022-11-14T16:37:26.197Z,11.17
2022-11-14T16:40:23.048Z,11.14
2022-11-14T16:43:13.638Z,11.19
2022-11-14T16:46:03.921Z,11.24
2022-11-14T16:48:49.150Z,11.26
2022-11-14T16:51:48.138Z,11.32
2022-11-14T16:54:34.481Z,11.15
2022-11-14T16:57:19.814Z,11.11
2022-11-14T17:00:06.143Z,11.19
2022-11-14T17:02:51.415Z,11.27
2022-11-14T17:05:48.659Z,11.30
2022-11-14T17:08:34.092Z,11.32
2022-11-14T17:11:19.222Z,11.32
2022-11-14T17:14:04.989Z,11.38
2022-11-14T17:16:50.038Z,11.44
2022-11-14T17:19:35.160Z,11.24
2022-11-14T17:22:20.160Z,11.33
2022-11-14T17:25:05.661Z,11.34
2022-11-14T17:27:51.211Z,11.25
2022-11-14T17:30:43.376Z,11.31
2022-11-14T17:33:28.993Z,11.29
2022-11-14T17:36:14.465Z,11.19
2022-11-14T17:38:59.931Z,11.12
2022-11-14T17:41:45.728Z,11.09
2022-11-14T17:44:30.871Z,11.08
2022-11-14T17:47:15.862Z,11.23
2022-11-14T17:50:01.264Z,11.19
2022-11-14T17:52:46.339Z,11.15
2022-11-14T17:55:31.624Z,11.14
2022-11-14T17:58:16.791Z,11.12
2022-11-14T18:01:02.173Z,11.12
2022-11-14T18:03:47.666Z,11.14
2022-11-14T18:06:33.645Z,11.15
2022-11-14T18:09:18.860Z,11.12
2022-11-14T18:12:04.642Z,11.00
2022-11-14T18:14:50.110Z,11.06
2022-11-14T18:17:35.409Z,11.09
2022-11-14T18:20:20.583Z,11.15
2022-11-14T18:23:05.691Z,11.29
2022-11-14T18:25:51.312Z,11.29
2022-11-14T18:28:36.467Z,11.28
2022-11-14T18:31:22.572Z,11.23
2022-11-14T18:34:07.585Z,11.24
2022-11-14T18:36:53.009Z,11.27
2022-11-14T18:39:37.971Z,11.20
2022-11-14T18:42:23.339Z,11.27
2022-11-14T18:45:08.783Z,11.27
2022-11-14T18:47:53.929Z,11.36
2022-11-14T18:50:39.540Z,11.32
2022-11-14T18:53:24.644Z,11.16
2022-11-14T18:56:12.152Z,11.17
2022-11-14T18:58:57.842Z,11.16
2022-11-14T19:01:43.914Z,11.04
2022-11-14T19:04:29.637Z,11.06
2022-11-14T19:07:15.278Z,11.09
2022-11-14T19:10:00.919Z,11.06
2022-11-14T19:12:49.580Z,11.05
2022-11-14T19:15:35.124Z,11.12
2022-11-14T19:18:21.567Z,11.14
2022-11-14T19:21:06.626Z,11.17
2022-11-14T19:23:53.762Z,11.07
2022-11-14T19:26:39.242Z,11.11
2022-11-14T19:29:25.331Z,11.24
2022-11-14T19:32:10.421Z,11.12
2022-11-14T19:34:55.898Z,11.09
2022-11-14T19:37:41.267Z,10.78
2022-11-14T19:40:27.860Z,10.94
2022-11-14T19:43:12.991Z,10.88
2022-11-14T19:46:03.497Z,11.02
2022-11-14T19:48:49.118Z,10.95
2022-11-14T19:51:34.595Z,10.91
2022-11-14T19:54:19.787Z,10.96
2022-11-14T19:57:05.223Z,10.95
2022-11-14T19:59:50.307Z,10.93
2022-11-14T20:02:39.646Z,11.06
2022-11-14T20:05:25.081Z,10.95
2022-11-14T20:08:09.994Z,10.93
2022-11-14T20:11:03.058Z,11.03
2022-11-14T20:13:48.444Z,10.98
2022-11-14T20:16:35.305Z,10.77
2022-11-14T20:19:20.656Z,10.78
2022-11-14T20:22:06.641Z,10.77
2022-11-14T20:24:51.991Z,10.73
2022-11-14T20:27:37.355Z,10.74
2022-11-14T20:30:22.897Z,10.67
2022-11-14T20:33:09.094Z,10.74
2022-11-14T20:35:54.875Z,10.71
2022-11-14T20:38:40.258Z,10.71
2022-11-14T20:41:25.658Z,10.73
2022-11-14T20:44:11.664Z,10.80
2022-11-14T20:46:57.081Z,10.69
2022-11-14T20:49:43.346Z,10.66
2022-11-14T20:52:28.595Z,10.62
2022-11-14T20:55:15.572Z,10.67
2022-11-14T20:58:00.881Z,10.67
2022-11-14T21:00:46.231Z,10.62
2022-11-14T21:03:31.797Z,10.62
2022-11-14T21:06:17.457Z,10.63
2022-11-14T21:09:02.779Z,10.69
2022-11-14T21:11:48.164Z,10.77
2022-11-14T21:14:34.408Z,10.79
2022-11-14T21:17:19.715Z,10.79
2022-11-14T21:20:05.113Z,10.69
2022-11-14T21:22:50.317Z,10.75
2022-11-14T21:25:35.785Z,10.71
2022-11-14T21:28:21.151Z,10.71
2022-11-14T21:31:44.478Z,10.66
2022-11-14T21:34:29.949Z,10.66
2022-11-14T21:37:15.255Z,10.71
2022-11-14T21:40:00.599Z,10.63
2022-11-14T21:42:46.236Z,10.61
2022-11-14T21:45:31.490Z,10.53
2022-11-14T21:48:16.820Z,10.60
2022-11-14T21:51:04.398Z,10.61
2022-11-14T21:53:54.643Z,10.68
2022-11-14T21:56:40.071Z,10.72
2022-11-14T21:59:27.482Z,10.75
2022-11-14T22:02:31.671Z,10.74
2022-11-14T22:05:17.028Z,10.76
2022-11-14T22:08:02.327Z,10.76
2022-11-14T22:10:47.373Z,10.89
2022-11-14T22:13:33.047Z,10.90
2022-11-14T22:16:19.594Z,10.94
2022-11-14T22:19:05.902Z,10.93
2022-11-14T22:21:51.741Z,10.94
2022-11-14T22:24:36.917Z,10.97
2022-11-14T22:27:22.173Z,10.98
2022-11-14T22:30:08.174Z,11.04
2022-11-14T22:32:53.373Z,10.99
2022-11-14T22:35:38.741Z,10.94
2022-11-14T22:38:23.779Z,10.92
2022-11-14T22:41:14.488Z,10.95
2022-11-14T22:44:00.322Z,10.99
2022-11-14T22:46:45.576Z,10.94
2022-11-14T22:49:30.902Z,10.98
2022-11-14T22:52:15.802Z,11.00
2022-11-14T22:55:01.692Z,10.99
2022-11-14T22:57:47.138Z,11.03
2022-11-14T23:00:32.382Z,11.08
2022-11-14T23:03:21.319Z,11.12
2022-11-14T23:06:15.371Z,11.06
2022-11-14T23:09:02.366Z,11.04
2022-11-14T23:11:47.451Z,11.10
2022-11-14T23:14:32.759Z,11.12
2022-11-14T23:17:17.849Z,11.11
2022-11-14T23:20:03.261Z,11.12
2022-11-14T23:22:48.497Z,11.20
2022-11-14T23:25:35.849Z,11.22
2022-11-14T23:28:21.289Z,11.20
2022-11-14T23:31:08.615Z,11.25
2022-11-14T23:33:55.590Z,11.30
2022-11-14T23:36:40.872Z,11.24
2022-11-14T23:39:26.365Z,11.16
2022-11-14T23:42:11.611Z,11.25
2022-11-14T23:44:56.922Z,11.21
2022-11-14T23:47:42.413Z,11.25
2022-11-14T23:50:27.740Z,11.24
2022-11-14T23:53:12.585Z,11.19
2022-11-14T23:55:59.998Z,11.24
2022-11-14T23:58:45.972Z,11.28
